createdAt,value
2018-11-07T00:02:01.204Z,75.37
2018-11-07T00:04:55.332Z,73.65
2018-11-07T00:07:48.983Z,71.93
2018-11-07T00:11:01.212Z,72.30
2018-11-07T00:13:55.132Z,72.33
2018-11-07T00:16:48.960Z,74.20
2018-11-07T00:19:42.562Z,72.97
2018-11-07T00:22:36.613Z,71.43
2018-11-07T00:25:30.405Z,74.33
2018-11-07T00:28:24.467Z,76.67
2018-11-07T00:31:18.347Z,73.67
2018-11-07T00:34:13.561Z,73.40
2018-11-07T00:37:06.942Z,73.97
2018-11-07T00:40:00.221Z,73.17
2018-11-07T00:42:54.261Z,73.23
2018-11-07T00:45:47.727Z,72.57
2018-11-07T00:48:41.432Z,75.23
2018-11-07T00:51:35.171Z,75.83
2018-11-07T00:54:29.149Z,77.67
2018-11-07T00:57:25.181Z,81.60
2018-11-07T01:00:23.853Z,79.50
2018-11-07T01:03:17.767Z,77.83
2018-11-07T01:06:14.535Z,77.50
2018-11-07T01:09:08.397Z,74.03
2018-11-07T01:12:01.832Z,77.73
2018-11-07T01:14:55.606Z,76.77
2018-11-07T01:17:49.071Z,75.57
2018-11-07T01:20:42.746Z,76.77
2018-11-07T01:23:36.830Z,77.03
2018-11-07T01:26:30.271Z,75.17
2018-11-07T01:29:24.300Z,80.97
2018-11-07T01:32:18.131Z,80.85
2018-11-07T01:35:12.238Z,75.20
2018-11-07T01:38:06.304Z,76.23
2018-11-07T01:40:59.913Z,79.70
2018-11-07T01:43:53.678Z,78.62
2018-11-07T01:46:47.936Z,77.63
2018-11-07T01:49:42.120Z,81.53
2018-11-07T01:52:38.966Z,82.03
2018-11-07T01:55:33.556Z,87.23
2018-11-07T01:58:27.844Z,83.43
2018-11-07T02:01:21.769Z,83.67
2018-11-07T02:04:15.496Z,84.23
2018-11-07T02:07:08.747Z,78.87
2018-11-07T02:10:03.657Z,81.83
2018-11-07T02:12:57.740Z,80.55
2018-11-07T02:15:51.713Z,79.63
2018-11-07T02:18:46.354Z,80.83
2018-11-07T02:21:39.983Z,81.37
2018-11-07T02:24:33.448Z,83.27
2018-11-07T02:27:27.127Z,82.40
2018-11-07T02:30:22.843Z,83.80
2018-11-07T02:33:18.967Z,84.30
2018-11-07T02:36:12.955Z,81.87
2018-11-07T02:39:06.852Z,79.10
2018-11-07T02:42:03.928Z,81.53
2018-11-07T02:44:57.754Z,81.67
2018-11-07T02:47:51.432Z,81.53
2018-11-07T02:50:47.141Z,85.22
2018-11-07T02:53:40.804Z,87.87
2018-11-07T02:56:56.737Z,85.75
2018-11-07T02:59:28.462Z,86.07
2018-11-07T03:02:22.341Z,89.07
2018-11-07T03:05:19.664Z,86.78
2018-11-07T03:08:10.513Z,87.97
2018-11-07T03:11:08.658Z,87.30
2018-11-07T03:14:02.352Z,85.10
2018-11-07T03:16:56.236Z,85.53
2018-11-07T03:19:51.536Z,84.00
2018-11-07T03:22:45.617Z,83.67
2018-11-07T03:25:39.195Z,86.03
2018-11-07T03:28:37.878Z,83.73
2018-11-07T03:31:31.753Z,84.47
2018-11-07T03:34:30.339Z,85.70
2018-11-07T03:37:24.930Z,85.05
2018-11-07T03:40:18.716Z,83.60
2018-11-07T03:43:12.584Z,83.43
2018-11-07T03:46:06.382Z,83.73
2018-11-07T03:49:00.337Z,84.63
2018-11-07T03:51:54.313Z,82.77
2018-11-07T03:54:48.294Z,82.43
2018-11-07T03:57:44.981Z,83.60
2018-11-07T04:00:41.169Z,83.20
2018-11-07T04:03:35.143Z,83.65
2018-11-07T04:06:29.022Z,80.97
2018-11-07T04:09:23.101Z,82.55
2018-11-07T04:12:16.571Z,82.83
2018-11-07T04:15:15.326Z,84.83
2018-11-07T04:18:05.028Z,86.25
2018-11-07T04:21:00.046Z,83.52
2018-11-07T04:24:01.705Z,83.37
2018-11-07T04:26:56.292Z,86.03
2018-11-07T04:29:49.964Z,84.30
2018-11-07T04:32:44.044Z,84.47
2018-11-07T04:35:37.611Z,84.03
2018-11-07T04:38:31.499Z,83.53
2018-11-07T04:41:25.264Z,83.43
2018-11-07T04:44:18.941Z,86.97
2018-11-07T04:47:13.026Z,84.32
2018-11-07T04:50:06.585Z,82.35
2018-11-07T04:53:00.569Z,82.73
2018-11-07T04:55:54.136Z,87.37
2018-11-07T04:58:48.522Z,83.87
2018-11-07T05:01:44.649Z,82.95
2018-11-07T05:04:39.145Z,81.57
2018-11-07T05:07:35.839Z,83.27
2018-11-07T05:10:29.765Z,83.90
2018-11-07T05:13:23.640Z,82.37
2018-11-07T05:16:24.787Z,81.10
2018-11-07T05:19:27.360Z,82.10
2018-11-07T05:22:13.152Z,83.53
2018-11-07T05:25:07.032Z,82.37
2018-11-07T05:28:02.853Z,84.33
2018-11-07T05:30:57.343Z,83.20
2018-11-07T05:33:51.223Z,82.83
2018-11-07T05:36:48.372Z,82.77
2018-11-07T05:39:42.046Z,82.80
2018-11-07T05:42:36.433Z,82.83
2018-11-07T05:45:29.733Z,82.78
2018-11-07T05:48:23.469Z,82.53
2018-11-07T05:51:17.139Z,82.90
2018-11-07T05:54:12.758Z,81.13
2018-11-07T05:57:06.839Z,81.50
2018-11-07T06:00:00.920Z,80.37
2018-11-07T06:02:55.716Z,84.50
2018-11-07T06:05:49.903Z,80.40
2018-11-07T06:08:45.421Z,80.47
2018-11-07T06:11:41.543Z,83.03
2018-11-07T06:14:35.729Z,81.47
2018-11-07T06:17:29.602Z,81.13
2018-11-07T06:20:23.069Z,79.70
2018-11-07T06:23:16.747Z,79.90
2018-11-07T06:26:11.334Z,80.90
2018-11-07T06:29:05.007Z,83.93
2018-11-07T06:32:00.317Z,78.77
2018-11-07T06:34:59.573Z,80.63
2018-11-07T06:37:50.324Z,78.57
2018-11-07T06:40:44.111Z,80.00
2018-11-07T06:43:39.713Z,77.37
2018-11-07T06:46:33.700Z,78.50
2018-11-07T06:49:27.549Z,79.15
2018-11-07T06:52:22.392Z,80.20
2018-11-07T06:55:16.277Z,79.17
2018-11-07T06:58:10.332Z,80.20
2018-11-07T07:01:04.098Z,79.17
2018-11-07T07:03:58.513Z,77.93
2018-11-07T07:06:52.785Z,76.57
2018-11-07T07:09:46.649Z,79.03
2018-11-07T07:12:41.650Z,79.27
2018-11-07T07:15:35.017Z,81.77
2018-11-07T07:18:29.016Z,78.50
2018-11-07T07:21:25.562Z,75.67
2018-11-07T07:24:19.202Z,78.83
2018-11-07T07:27:13.273Z,77.97
2018-11-07T07:30:07.246Z,77.75
2018-11-07T07:33:02.740Z,77.77
2018-11-07T07:35:56.638Z,77.63
2018-11-07T07:38:50.206Z,76.07
2018-11-07T07:41:46.853Z,75.60
2018-11-07T07:44:39.696Z,76.20
2018-11-07T07:47:35.816Z,76.77
2018-11-07T07:50:29.153Z,77.10
2018-11-07T07:53:22.681Z,77.80
2018-11-07T07:56:16.769Z,78.05
2018-11-07T07:59:10.738Z,75.23
2018-11-07T08:02:04.517Z,76.97
2018-11-07T08:04:58.288Z,76.65
2018-11-07T08:07:52.266Z,73.63
2018-11-07T08:10:48.290Z,75.03
2018-11-07T08:13:42.296Z,75.85
2018-11-07T08:16:46.086Z,74.63
2018-11-07T08:19:43.539Z,77.40
2018-11-07T08:22:37.007Z,76.42
2018-11-07T08:25:30.781Z,74.70
2018-11-07T08:28:24.764Z,79.07
2018-11-07T08:31:19.765Z,74.60
2018-11-07T08:34:13.214Z,77.17
2018-11-07T08:37:06.805Z,74.63
2018-11-07T08:40:00.264Z,75.65
2018-11-07T08:42:54.039Z,74.32
2018-11-07T08:45:49.048Z,75.12
2018-11-07T08:48:44.968Z,73.90
2018-11-07T08:51:39.869Z,77.53
2018-11-07T08:54:33.671Z,74.67
2018-11-07T08:57:27.323Z,73.50
2018-11-07T09:00:27.333Z,77.15
2018-11-07T09:03:23.977Z,73.87
2018-11-07T09:06:17.952Z,74.32
2018-11-07T09:09:14.323Z,75.00
2018-11-07T09:12:08.088Z,75.00
2018-11-07T09:15:02.028Z,74.70
2018-11-07T09:17:55.508Z,74.57
2018-11-07T09:20:51.028Z,72.93
2018-11-07T09:23:44.999Z,73.80
2018-11-07T09:26:38.568Z,72.60
2018-11-07T09:29:32.343Z,74.23
2018-11-07T09:32:26.422Z,72.53
2018-11-07T09:35:22.245Z,72.78
2018-11-07T09:38:16.209Z,75.57
2018-11-07T09:41:09.799Z,71.97
2018-11-07T09:44:03.671Z,72.07
2018-11-07T09:46:57.239Z,74.40
2018-11-07T09:49:52.139Z,71.20
2018-11-07T09:52:46.937Z,75.73
2018-11-07T09:55:40.832Z,72.60
2018-11-07T09:58:34.734Z,70.13
2018-11-07T10:01:28.666Z,71.93
2018-11-07T10:04:24.384Z,72.40
2018-11-07T10:07:18.267Z,73.67
2018-11-07T10:10:15.684Z,75.40
2018-11-07T10:13:09.395Z,73.63
2018-11-07T10:16:03.270Z,73.60
2018-11-07T10:18:56.866Z,72.10
2018-11-07T10:21:50.562Z,73.83
2018-11-07T10:24:43.980Z,71.97
2018-11-07T10:27:38.240Z,70.35
2018-11-07T10:30:31.908Z,72.97
2018-11-07T10:33:27.451Z,72.37
2018-11-07T10:36:21.124Z,73.83
2018-11-07T10:39:16.125Z,70.12
2018-11-07T10:42:10.625Z,70.63
2018-11-07T10:45:04.701Z,73.20
2018-11-07T10:47:58.882Z,72.33
2018-11-07T10:50:52.858Z,70.28
2018-11-07T10:53:47.656Z,72.03
2018-11-07T10:56:41.459Z,71.00
2018-11-07T10:59:35.410Z,70.43
2018-11-07T11:02:46.192Z,73.37
2018-11-07T11:05:39.657Z,70.30
2018-11-07T11:08:33.533Z,69.87
2018-11-07T11:11:29.826Z,71.00
2018-11-07T11:14:24.862Z,71.45
2018-11-07T11:17:18.466Z,70.83
2018-11-07T11:20:14.849Z,70.43
2018-11-07T11:23:10.293Z,69.27
2018-11-07T11:26:03.848Z,69.43
2018-11-07T11:28:57.723Z,70.65
2018-11-07T11:31:51.498Z,68.22
2018-11-07T11:34:45.358Z,70.50
2018-11-07T11:37:40.171Z,69.70
2018-11-07T11:40:34.718Z,71.15
2018-11-07T11:43:28.950Z,67.97
2018-11-07T11:46:22.941Z,69.00
2018-11-07T11:49:16.859Z,69.30
2018-11-07T11:52:12.319Z,69.97
2018-11-07T11:55:05.990Z,69.30
2018-11-07T11:57:59.767Z,68.97
2018-11-07T12:00:53.844Z,69.50
2018-11-07T12:03:47.927Z,70.03
2018-11-07T12:06:43.351Z,67.20
2018-11-07T12:09:37.117Z,69.27
2018-11-07T12:12:31.909Z,67.53
2018-11-07T12:15:27.041Z,69.33
2018-11-07T12:18:21.099Z,66.97
2018-11-07T12:21:15.029Z,67.40
2018-11-07T12:24:09.064Z,68.97
2018-11-07T12:27:03.160Z,68.90
2018-11-07T12:29:56.708Z,68.50
2018-11-07T12:32:51.914Z,66.53
2018-11-07T12:35:52.827Z,67.80
2018-11-07T12:38:43.458Z,67.22
2018-11-07T12:41:37.232Z,67.47
2018-11-07T12:44:30.899Z,67.37
2018-11-07T12:47:25.804Z,68.12
2018-11-07T12:50:21.236Z,67.17
2018-11-07T12:53:15.499Z,70.72
2018-11-07T12:56:10.706Z,69.17
2018-11-07T12:59:04.480Z,71.90
2018-11-07T13:02:01.225Z,71.07
2018-11-07T13:04:54.898Z,78.30
2018-11-07T13:07:53.793Z,70.87
2018-11-07T13:10:43.976Z,74.93
2018-11-07T13:13:37.550Z,77.77
2018-11-07T13:16:31.471Z,77.70
2018-11-07T13:19:25.393Z,82.87
2018-11-07T13:22:19.960Z,82.05
2018-11-07T13:25:15.819Z,77.67
2018-11-07T13:28:11.578Z,70.70
2018-11-07T13:31:05.208Z,79.35
2018-11-07T13:33:58.673Z,86.67
2018-11-07T13:36:52.568Z,84.03
2018-11-07T13:39:46.430Z,83.80
2018-11-07T13:42:40.812Z,79.30
2018-11-07T13:45:34.898Z,75.28
2018-11-07T13:48:28.773Z,76.90
2018-11-07T13:51:22.140Z,80.22
2018-11-07T13:54:16.016Z,81.40
2018-11-07T13:57:10.255Z,85.83
2018-11-07T14:00:08.886Z,97.57
2018-11-07T14:03:02.559Z,95.40
2018-11-07T14:05:57.591Z,88.73
2018-11-07T14:08:51.232Z,102.95
2018-11-07T14:11:45.108Z,86.92
2018-11-07T14:14:38.891Z,91.75
2018-11-07T14:17:32.736Z,97.87
2018-11-07T14:20:26.439Z,94.03
2018-11-07T14:23:20.828Z,94.17
2018-11-07T14:26:14.759Z,100.83
2018-11-07T14:29:08.881Z,92.10
2018-11-07T14:32:04.496Z,101.07
2018-11-07T14:34:58.270Z,89.80
2018-11-07T14:37:56.857Z,87.10
2018-11-07T14:40:52.268Z,99.05
2018-11-07T14:43:48.012Z,90.90
2018-11-07T14:46:44.630Z,88.55
2018-11-07T14:49:38.608Z,90.10
2018-11-07T14:52:32.291Z,92.90
2018-11-07T14:55:25.848Z,86.35
2018-11-07T14:58:20.445Z,86.97
2018-11-07T15:01:14.218Z,86.63
2018-11-07T15:04:11.256Z,85.67
2018-11-07T15:07:04.937Z,86.70
2018-11-07T15:10:01.418Z,103.12
2018-11-07T15:12:55.166Z,97.55
2018-11-07T15:15:50.047Z,96.75
2018-11-07T15:18:43.925Z,87.97
2018-11-07T15:21:39.745Z,93.10
2018-11-07T15:24:33.716Z,92.27
2018-11-07T15:27:27.397Z,92.45
2018-11-07T15:30:26.105Z,95.87
2018-11-07T15:33:19.962Z,99.22
2018-11-07T15:36:14.885Z,99.27
2018-11-07T15:39:10.227Z,101.80
2018-11-07T15:42:03.742Z,109.80
2018-11-07T15:44:57.412Z,91.10
2018-11-07T15:47:50.690Z,103.63
2018-11-07T15:51:00.937Z,121.37
2018-11-07T15:53:54.612Z,105.27
2018-11-07T15:56:48.640Z,126.17
2018-11-07T15:59:42.669Z,113.12
2018-11-07T16:02:36.555Z,117.50
2018-11-07T16:05:30.111Z,133.95
2018-11-07T16:08:23.988Z,133.30
2018-11-07T16:11:18.377Z,145.82
2018-11-07T16:14:16.883Z,152.97
2018-11-07T16:17:13.630Z,145.83
2018-11-07T16:20:04.748Z,161.28
2018-11-07T16:23:00.084Z,171.03
2018-11-07T16:25:54.056Z,135.60
2018-11-07T16:28:47.581Z,136.73
2018-11-07T16:31:41.678Z,137.35
2018-11-07T16:34:35.740Z,149.00
2018-11-07T16:37:29.525Z,164.32
2018-11-07T16:40:23.145Z,151.18
2018-11-07T16:43:17.059Z,132.05
2018-11-07T16:46:20.088Z,134.60
2018-11-07T16:49:14.034Z,145.97
2018-11-07T16:52:08.519Z,132.72
2018-11-07T16:55:02.290Z,147.90
2018-11-07T16:57:56.943Z,168.55
2018-11-07T17:00:50.663Z,149.43
2018-11-07T17:03:44.330Z,163.40
2018-11-07T17:06:37.697Z,139.47
2018-11-07T17:09:33.115Z,174.67
2018-11-07T17:12:26.985Z,174.87
2018-11-07T17:15:24.488Z,181.27
2018-11-07T17:18:14.636Z,178.78
2018-11-07T17:21:08.203Z,169.43
2018-11-07T17:24:01.828Z,162.07
2018-11-07T17:26:55.657Z,166.97
2018-11-07T17:29:49.320Z,161.37
2018-11-07T17:32:42.788Z,158.30
2018-11-07T17:35:36.357Z,161.03
2018-11-07T17:38:29.746Z,158.43
2018-11-07T17:41:23.947Z,156.40
2018-11-07T17:44:17.882Z,151.20
2018-11-07T17:47:11.972Z,157.60
2018-11-07T17:50:05.838Z,156.33
2018-11-07T17:53:01.047Z,156.13
2018-11-07T17:55:54.687Z,151.45
2018-11-07T17:58:54.498Z,153.45
2018-11-07T18:01:48.622Z,152.30
2018-11-07T18:04:42.696Z,153.93
2018-11-07T18:07:36.263Z,152.70
2018-11-07T18:10:29.867Z,154.35
2018-11-07T18:13:24.339Z,149.05
2018-11-07T18:16:21.187Z,153.57
2018-11-07T18:19:15.378Z,150.42
2018-11-07T18:22:09.340Z,150.95
2018-11-07T18:25:03.413Z,151.02
2018-11-07T18:27:57.197Z,154.17
2018-11-07T18:30:51.173Z,151.50
2018-11-07T18:33:44.636Z,148.30
2018-11-07T18:36:38.304Z,150.17
2018-11-07T18:39:34.537Z,147.75
2018-11-07T18:42:28.412Z,148.40
2018-11-07T18:45:23.415Z,147.87
2018-11-07T18:48:17.215Z,146.17
2018-11-07T18:51:10.862Z,146.20
2018-11-07T18:54:04.898Z,143.80
2018-11-07T18:56:58.224Z,142.00
2018-11-07T18:59:52.286Z,142.10
2018-11-07T19:02:46.672Z,141.12
2018-11-07T19:05:40.242Z,137.30
2018-11-07T19:08:36.575Z,138.93
2018-11-07T19:11:30.453Z,134.70
2018-11-07T19:14:24.023Z,135.37
2018-11-07T19:17:17.778Z,132.40
2018-11-07T19:20:12.904Z,133.50
2018-11-07T19:23:06.571Z,130.10
2018-11-07T19:26:00.655Z,124.00
2018-11-07T19:28:54.634Z,126.20
2018-11-07T19:31:48.408Z,125.57
2018-11-07T19:34:42.562Z,124.50
2018-11-07T19:37:37.832Z,125.05
2018-11-07T19:40:31.776Z,123.83
2018-11-07T19:43:25.449Z,125.67
2018-11-07T19:46:19.132Z,121.40
2018-11-07T19:49:12.879Z,119.25
2018-11-07T19:52:06.673Z,117.87
2018-11-07T19:55:00.875Z,116.17
2018-11-07T19:58:04.275Z,114.50
2018-11-07T20:00:58.158Z,121.77
2018-11-07T20:03:54.974Z,114.80
2018-11-07T20:06:51.717Z,112.57
2018-11-07T20:09:45.182Z,113.08
2018-11-07T20:12:38.956Z,113.95
2018-11-07T20:15:32.630Z,107.63
2018-11-07T20:18:26.210Z,113.22
2018-11-07T20:21:19.975Z,112.53
2018-11-07T20:24:13.850Z,115.33
2018-11-07T20:27:07.826Z,111.40
2018-11-07T20:30:02.012Z,107.55
2018-11-07T20:32:57.833Z,101.63
2018-11-07T20:35:52.226Z,104.23
2018-11-07T20:38:45.789Z,102.20
2018-11-07T20:41:39.574Z,107.00
2018-11-07T20:44:33.753Z,99.70
2018-11-07T20:47:27.827Z,102.57
2018-11-07T20:50:22.974Z,105.20
2018-11-07T20:53:16.621Z,93.87
2018-11-07T20:56:10.790Z,92.35
2018-11-07T20:59:04.578Z,92.83
2018-11-07T21:01:58.660Z,91.53
2018-11-07T21:04:52.211Z,88.47
2018-11-07T21:07:46.295Z,88.17
2018-11-07T21:10:40.373Z,89.00
2018-11-07T21:13:34.353Z,85.43
2018-11-07T21:16:28.751Z,86.57
2018-11-07T21:19:22.311Z,84.83
2018-11-07T21:22:16.607Z,85.70
2018-11-07T21:25:10.678Z,85.87
2018-11-07T21:28:06.092Z,85.07
2018-11-07T21:31:01.423Z,91.17
2018-11-07T21:33:55.587Z,83.37
2018-11-07T21:36:51.219Z,87.53
2018-11-07T21:39:45.911Z,79.92
2018-11-07T21:42:39.497Z,83.83
2018-11-07T21:45:33.450Z,79.55
2018-11-07T21:48:27.435Z,80.53
2018-11-07T21:51:21.204Z,79.20
2018-11-07T21:54:14.931Z,82.57
2018-11-07T21:57:08.438Z,79.57
2018-11-07T22:00:02.204Z,79.33
2018-11-07T22:02:56.211Z,75.00
2018-11-07T22:05:50.784Z,76.80
2018-11-07T22:08:45.023Z,74.63
2018-11-07T22:11:38.620Z,77.13
2018-11-07T22:14:32.517Z,75.83
2018-11-07T22:17:26.394Z,75.35
2018-11-07T22:20:26.924Z,70.73
2018-11-07T22:23:22.643Z,75.30
2018-11-07T22:26:16.132Z,73.00
2018-11-07T22:29:10.192Z,70.83
2018-11-07T22:32:04.171Z,74.97
2018-11-07T22:34:59.066Z,73.22
2018-11-07T22:37:53.766Z,74.53
2018-11-07T22:40:49.177Z,71.60
2018-11-07T22:43:43.159Z,71.27
2018-11-07T22:46:36.829Z,73.25
2018-11-07T22:49:30.401Z,70.23
2018-11-07T22:52:25.196Z,70.95
2018-11-07T22:55:19.073Z,69.37
2018-11-07T22:58:12.745Z,68.75
2018-11-07T23:01:26.179Z,69.47
2018-11-07T23:04:20.054Z,70.60
2018-11-07T23:07:14.144Z,68.17
2018-11-07T23:10:09.810Z,69.80
2018-11-07T23:13:03.527Z,70.60
2018-11-07T23:15:59.147Z,69.43
2018-11-07T23:18:53.229Z,68.35
2018-11-07T23:21:47.210Z,68.70
2018-11-07T23:24:41.091Z,68.07
2018-11-07T23:27:38.235Z,69.57
2018-11-07T23:30:31.988Z,69.73
2018-11-07T23:33:25.577Z,66.80
2018-11-07T23:36:19.148Z,69.47
2018-11-07T23:39:13.635Z,70.27
2018-11-07T23:42:07.923Z,71.70
2018-11-07T23:45:01.903Z,68.20
2018-11-07T23:47:55.779Z,66.90
2018-11-07T23:50:49.551Z,67.43
2018-11-07T23:53:43.334Z,69.67
2018-11-07T23:56:38.429Z,67.27
2018-11-07T23:59:32.327Z,69.63
